Time;durP1;ratioP1;P1;durP2;ratioP2;P2;SDS_P1;SDS_P2;PMS_P1;PMS_P2;Temp;Humidity;BMP_temperature;BMP_pressure;BME280_temperature;BME280_humidity;BME280_pressure;Samples;Min_cycle;Max_cycle;Signal;HPM_P1;HPM_P2
2023/03/08 00:02:20;;;;;;;22.13;6.50;;;;;;;17.36;48.87;99049.78;5111937;28;20158;-61
2023/03/08 00:04:45;;;;;;;18.40;5.87;;;;;;;17.39;48.45;99054.72;5086008;28;20202;-61
2023/03/08 00:07:10;;;;;;;24.57;6.23;;;;;;;17.73;47.81;99056.84;5088163;28;20182;-62
2023/03/08 00:09:37;;;;;;;21.10;5.47;;;;;;;17.81;47.90;99054.81;5109518;28;20213;-62
2023/03/08 00:12:02;;;;;;;17.70;5.93;;;;;;;17.83;48.00;99060.91;5110700;28;20178;-62
2023/03/08 00:14:28;;;;;;;22.20;6.13;;;;;;;17.89;48.08;99047.88;5109453;28;20527;-62
2023/03/08 00:16:53;;;;;;;14.37;5.50;;;;;;;17.57;48.03;99042.13;5108131;28;20181;-62
2023/03/08 00:19:19;;;;;;;15.30;6.00;;;;;;;17.43;48.39;99027.84;5109158;28;20608;-61
2023/03/08 00:21:44;;;;;;;14.40;5.33;;;;;;;17.36;48.71;99030.63;5109717;28;20158;-62
2023/03/08 00:24:11;;;;;;;14.90;5.03;;;;;;;17.47;48.40;99022.97;5110941;28;20205;-62
2023/03/08 00:26:36;;;;;;;14.10;5.50;;;;;;;17.40;48.59;99022.94;5090005;28;20230;-62
2023/03/08 00:29:02;;;;;;;24.00;5.50;;;;;;;17.43;48.80;99022.13;5110830;28;21201;-62
2023/03/08 00:31:27;;;;;;;14.63;5.30;;;;;;;17.43;48.88;99022.13;5110284;28;20174;-62
2023/03/08 00:33:53;;;;;;;12.80;5.50;;;;;;;17.42;48.58;99019.69;5109896;28;20162;-62
2023/03/08 00:36:19;;;;;;;10.83;4.80;;;;;;;17.36;49.02;99026.97;5102513;28;20181;-62
2023/03/08 00:38:45;;;;;;;10.03;4.10;;;;;;;17.37;49.18;99015.16;5110340;28;20419;-62
2023/03/08 00:41:10;;;;;;;11.93;4.63;;;;;;;17.32;49.34;99011.88;5110675;28;20231;-62
2023/03/08 00:43:36;;;;;;;12.50;4.87;;;;;;;17.27;49.85;99015.97;5127683;27;20532;-62
2023/03/08 00:46:01;;;;;;;10.50;4.27;;;;;;;17.22;49.67;99021.22;5131574;27;20158;-62
2023/03/08 00:48:26;;;;;;;13.97;4.83;;;;;;;17.21;49.60;99020.41;5098960;28;20177;-62
2023/03/08 00:50:52;;;;;;;16.67;4.97;;;;;;;17.20;49.79;99012.28;5104691;28;20178;-61
2023/03/08 00:53:17;;;;;;;17.17;4.13;;;;;;;17.20;49.94;99009.41;5113274;27;20694;-62
2023/03/08 00:55:53;;;;;;;17.53;4.10;;;;;;;17.14;50.20;99002.44;5109303;28;20158;-62
2023/03/08 00:58:19;;;;;;;15.50;4.23;;;;;;;17.11;49.98;98995.53;5107912;28;20181;-62
2023/03/08 01:00:44;;;;;;;13.17;4.53;;;;;;;17.11;49.91;98994.72;5109125;28;20431;-62
2023/03/08 01:03:10;;;;;;;10.70;4.60;;;;;;;17.12;49.93;98977.22;5110401;28;20247;-61
2023/03/08 01:05:48;;;;;;;10.73;4.00;;;;;;;17.09;49.95;98986.56;5108752;28;20270;-62
2023/03/08 01:08:14;;;;;;;7.03;3.83;;;;;;;17.09;49.86;98974.31;5102368;28;20218;-62
2023/03/08 01:10:39;;;;;;;10.70;4.63;;;;;;;17.13;50.31;98973.13;5109337;28;20463;-62
2023/03/08 01:13:05;;;;;;;15.43;4.27;;;;;;;17.10;50.10;98965.38;5109883;28;20181;-62
2023/03/08 01:15:34;;;;;;;13.73;4.70;;;;;;;17.13;49.86;98963.75;5104520;28;20422;-62
2023/03/08 01:18:00;;;;;;;8.13;3.47;;;;;;;17.12;49.97;98956.44;5093193;28;20427;-62
2023/03/08 01:20:25;;;;;;;10.30;4.27;;;;;;;17.18;49.97;98949.94;5102813;28;20508;-62
2023/03/08 01:22:51;;;;;;;11.33;4.70;;;;;;;17.18;49.88;98943.41;5091903;28;20209;-62
2023/03/08 01:25:16;;;;;;;10.40;4.40;;;;;;;17.17;49.92;98939.75;5089945;28;20713;-62
2023/03/08 01:27:41;;;;;;;6.97;4.03;;;;;;;17.16;49.90;98931.59;5109402;28;20166;-61
2023/03/08 01:30:08;;;;;;;9.63;4.27;;;;;;;17.17;49.74;98928.34;5101015;28;20178;-62
2023/03/08 01:32:33;;;;;;;6.43;3.77;;;;;;;17.18;49.75;98929.13;5110421;28;20244;-62
2023/03/08 01:35:03;;;;;;;8.27;4.30;;;;;;;17.16;50.14;98937.28;5109224;28;20858;-62
2023/03/08 01:37:29;;;;;;;9.47;4.70;;;;;;;17.13;50.13;98932.38;5108668;28;20180;-63
2023/03/08 01:39:55;;;;;;;8.40;3.73;;;;;;;17.11;50.15;98935.63;5110042;28;20404;-61
2023/03/08 01:42:20;;;;;;;11.00;4.40;;;;;;;17.12;50.02;98939.31;5110018;28;20414;-62
2023/03/08 01:44:50;;;;;;;9.03;4.03;;;;;;;17.08;50.12;98930.75;5101409;28;20178;-62
2023/03/08 01:47:18;;;;;;;9.60;3.73;;;;;;;17.09;50.11;98937.25;5109571;28;20170;-62
2023/03/08 01:49:43;;;;;;;10.20;4.27;;;;;;;17.09;50.12;98926.69;5094358;27;20456;-62
2023/03/08 01:52:45;;;;;;;14.10;4.53;;;;;;;17.05;50.32;98914.44;5109193;28;20396;-62
2023/03/08 01:55:11;;;;;;;6.30;3.20;;;;;;;17.07;50.07;98909.19;5104456;28;20568;-62
2023/03/08 01:57:42;;;;;;;5.40;3.30;;;;;;;17.05;50.16;98908.75;5093725;28;20439;-62
2023/03/08 02:00:11;;;;;;;10.43;4.20;;;;;;;17.07;50.32;98906.31;5090558;28;20188;-62
2023/03/08 02:02:57;;;;;;;7.77;4.10;;;;;;;17.06;50.21;98903.88;5109048;28;20455;-62
2023/03/08 02:05:22;;;;;;;7.97;3.70;;;;;;;17.06;50.17;98903.88;5080106;28;20446;-62
2023/03/08 02:07:48;;;;;;;7.50;3.47;;;;;;;17.07;50.23;98906.31;5099403;28;20472;-62
2023/03/08 02:10:13;;;;;;;6.53;3.47;;;;;;;17.08;50.03;98890.84;5088127;28;20262;-62
2023/03/08 02:12:39;;;;;;;8.87;3.80;;;;;;;17.03;50.33;98894.09;5110313;28;20154;-62
2023/03/08 02:15:05;;;;;;;12.63;4.50;;;;;;;17.09;50.18;98891.63;5092563;28;20193;-62
2023/03/08 02:17:31;;;;;;;6.67;3.50;;;;;;;17.09;50.12;98883.09;5092483;28;20177;-62
2023/03/08 02:20:00;;;;;;;6.57;3.27;;;;;;;17.08;50.25;98879.44;5075768;28;20419;-62
2023/03/08 02:22:26;;;;;;;8.97;3.80;;;;;;;17.08;50.02;98876.59;5092485;28;20714;-62
2023/03/08 02:24:51;;;;;;;5.93;3.53;;;;;;;17.00;50.41;98880.63;5110746;28;20405;-62
2023/03/08 02:27:23;;;;;;;6.60;3.07;;;;;;;17.02;50.25;98868.84;5110960;28;20219;-62
2023/03/08 02:29:49;;;;;;;8.97;3.83;;;;;;;17.02;50.39;98860.28;5092218;28;20201;-62
2023/03/08 02:32:14;;;;;;;6.03;3.10;;;;;;;17.01;50.35;98847.25;5109999;28;20898;-62
2023/03/08 02:34:40;;;;;;;9.80;3.90;;;;;;;17.04;50.54;98844.41;5109519;28;20185;-62
2023/03/08 02:37:05;;;;;;;10.03;3.73;;;;;;;17.05;50.26;98837.47;5124541;27;20510;-62
2023/03/08 02:39:31;;;;;;;7.23;3.70;;;;;;;17.05;50.38;98831.78;5109955;27;20189;-62
2023/03/08 02:41:56;;;;;;;8.90;3.03;;;;;;;17.07;50.17;98837.06;5090057;28;20163;-62
2023/03/08 02:44:22;;;;;;;7.00;3.87;;;;;;;17.05;50.21;98831.78;5103132;28;20201;-62
2023/03/08 02:46:47;;;;;;;7.93;3.17;;;;;;;17.06;50.14;98824.84;5091758;28;20178;-62
2023/03/08 02:49:12;;;;;;;5.20;3.30;;;;;;;17.09;49.97;98821.19;5091658;28;20154;-63
2023/03/08 02:51:38;;;;;;;6.30;3.23;;;;;;;17.08;50.12;98821.59;5091705;28;20228;-62
2023/03/08 02:54:03;;;;;;;7.30;3.30;;;;;;;17.01;50.41;98816.69;5110416;28;20178;-62
2023/03/08 02:56:29;;;;;;;7.53;3.27;;;;;;;17.03;50.30;98808.56;5110250;28;20206;-63
2023/03/08 02:58:54;;;;;;;6.73;3.57;;;;;;;17.04;50.32;98806.50;5110324;28;20563;-63
2023/03/08 03:01:20;;;;;;;5.23;3.20;;;;;;;17.00;50.58;98795.13;5110116;28;20269;-62
2023/03/08 03:03:45;;;;;;;7.90;3.43;;;;;;;16.98;50.66;98768.22;5109770;28;20216;-63
2023/03/08 03:06:18;;;;;;;5.90;3.00;;;;;;;16.96;50.37;98765.78;5108372;28;20656;-60
2023/03/08 03:08:43;;;;;;;8.90;3.73;;;;;;;16.99;50.56;98764.16;5091825;28;20162;-60
2023/03/08 03:11:17;;;;;;;5.47;3.20;;;;;;;17.01;50.46;98761.72;5109942;28;20403;-60
2023/03/08 03:13:42;;;;;;;11.30;4.27;;;;;;;17.00;50.24;98762.97;5109492;28;20170;-60
2023/03/08 03:16:17;;;;;;;5.07;2.97;;;;;;;16.99;50.57;98756.44;5110198;28;20754;-61
2023/03/08 03:18:43;;;;;;;6.60;3.73;;;;;;;17.00;50.57;98766.59;5109933;28;20158;-61
2023/03/08 03:21:10;;;;;;;5.73;3.37;;;;;;;17.00;50.46;98765.81;5090722;28;20982;-62
2023/03/08 03:23:35;;;;;;;5.70;3.27;;;;;;;16.99;50.77;98764.16;5109195;28;20197;-61
2023/03/08 03:26:11;;;;;;;6.53;3.40;;;;;;;16.98;50.60;98760.50;5109105;28;20484;-61
2023/03/08 03:28:36;;;;;;;8.07;3.57;;;;;;;17.04;50.46;98758.03;5108956;28;20161;-61
2023/03/08 03:31:06;;;;;;;7.37;3.60;;;;;;;17.01;50.45;98753.19;5090929;28;20415;-61
2023/03/08 03:33:32;;;;;;;6.80;2.97;;;;;;;16.99;50.47;98753.56;5090722;28;20172;-60
2023/03/08 03:35:57;;;;;;;7.50;3.30;;;;;;;16.94;50.26;98753.16;5079208;28;20432;-61
2023/03/08 03:38:22;;;;;;;5.20;2.73;;;;;;;16.92;50.60;98750.75;5109087;28;20161;-62
2023/03/08 03:40:48;;;;;;;5.53;2.53;;;;;;;16.92;50.41;98747.91;5108710;28;20184;-61
2023/03/08 03:43:13;;;;;;;5.50;3.13;;;;;;;16.92;50.32;98745.03;5109865;28;20255;-61
2023/03/08 03:45:38;;;;;;;5.77;3.27;;;;;;;16.93;50.84;98749.50;5109784;28;20616;-62
2023/03/08 03:48:04;;;;;;;6.93;3.40;;;;;;;16.98;50.39;98746.25;5108382;28;20241;-61
2023/03/08 03:50:30;;;;;;;5.23;3.17;;;;;;;17.01;50.84;98738.91;5102755;28;20182;-62
2023/03/08 03:52:55;;;;;;;8.03;4.73;;;;;;;17.04;50.13;98738.91;5111796;28;20617;-61
2023/03/08 03:55:20;;;;;;;10.07;3.67;;;;;;;17.04;50.22;98741.75;5110025;28;20154;-61
2023/03/08 03:57:46;;;;;;;11.57;3.73;;;;;;;17.00;50.36;98729.53;5109737;28;20169;-61
2023/03/08 04:00:12;;;;;;;7.00;3.03;;;;;;;16.99;50.45;98733.63;5109678;28;20174;-61
2023/03/08 04:02:37;;;;;;;8.37;3.17;;;;;;;17.00;50.14;98746.66;5112109;28;20764;-61
2023/03/08 04:05:03;;;;;;;6.60;2.87;;;;;;;16.99;50.50;98758.44;5104569;28;20432;-62
2023/03/08 04:07:28;;;;;;;5.70;3.03;;;;;;;16.99;50.69;98749.91;5110198;28;20528;-61
2023/03/08 04:09:54;;;;;;;4.33;2.80;;;;;;;16.96;50.33;98734.44;5113058;28;20234;-61
2023/03/08 04:12:19;;;;;;;6.33;3.63;;;;;;;16.96;50.28;98728.72;5113368;28;20169;-62
2023/03/08 04:14:45;;;;;;;4.90;2.77;;;;;;;16.94;50.71;98719.78;5113224;28;20170;-61
2023/03/08 04:17:10;;;;;;;7.70;3.50;;;;;;;16.92;50.45;98710.84;5112141;28;20177;-61
2023/03/08 04:19:36;;;;;;;5.00;2.90;;;;;;;16.91;50.77;98706.34;5094588;28;20176;-62
2023/03/08 04:22:02;;;;;;;5.70;2.93;;;;;;;16.91;50.87;98702.69;5113075;28;20165;-62
2023/03/08 04:24:27;;;;;;;5.40;2.73;;;;;;;16.90;50.67;98696.16;5111889;28;20197;-61
2023/03/08 04:26:52;;;;;;;5.80;2.70;;;;;;;16.90;50.68;98699.00;5112757;28;20188;-61
2023/03/08 04:29:18;;;;;;;4.83;3.13;;;;;;;16.92;50.84;98696.59;5112435;28;20594;-61
2023/03/08 04:31:43;;;;;;;4.37;2.70;;;;;;;16.94;50.54;98705.53;5112692;28;20162;-61
2023/03/08 04:34:09;;;;;;;5.33;2.90;;;;;;;16.92;50.59;98702.28;5112283;28;20157;-61
2023/03/08 04:36:35;;;;;;;5.53;2.83;;;;;;;16.93;50.43;98694.53;5112398;28;20178;-61
2023/03/08 04:39:01;;;;;;;5.83;3.00;;;;;;;16.93;50.44;98698.22;5112914;28;20404;-62
2023/03/08 04:41:26;;;;;;;4.77;2.80;;;;;;;16.89;50.55;98700.25;5105827;28;20439;-62
2023/03/08 04:43:55;;;;;;;4.57;2.80;;;;;;;16.92;50.70;98699.44;5111667;28;20205;-61
2023/03/08 04:46:23;;;;;;;5.30;3.20;;;;;;;16.91;50.81;98697.00;5114106;27;20169;-62
2023/03/08 04:48:48;;;;;;;5.10;2.70;;;;;;;16.90;50.83;98690.47;5111777;28;20918;-61
2023/03/08 04:51:14;;;;;;;5.93;2.90;;;;;;;16.94;50.31;98673.34;5112606;28;20410;-62
2023/03/08 04:53:40;;;;;;;7.30;3.63;;;;;;;16.92;50.60;98670.09;5112600;28;20146;-61
2023/03/08 04:56:06;;;;;;;6.20;2.90;;;;;;;16.91;50.74;98665.63;5112308;28;20407;-62
2023/03/08 04:58:32;;;;;;;5.53;3.10;;;;;;;16.90;50.53;98653.41;5111830;28;20197;-61
2023/03/08 05:00:58;;;;;;;5.33;3.00;;;;;;;16.96;50.51;98648.13;5104869;28;20435;-61
2023/03/08 05:03:24;;;;;;;5.10;3.00;;;;;;;16.98;50.37;98652.19;5096494;28;20490;-61
2023/03/08 05:05:51;;;;;;;4.97;2.83;;;;;;;17.00;50.04;98655.44;5090031;28;20732;-61
2023/03/08 05:08:17;;;;;;;4.20;2.70;;;;;;;16.98;50.52;98657.88;5104727;28;20211;-61
2023/03/08 05:10:49;;;;;;;5.80;3.07;;;;;;;17.00;50.22;98660.34;5110563;28;20503;-62
2023/03/08 05:13:14;;;;;;;6.47;2.80;;;;;;;16.99;50.28;98648.09;5111247;28;20223;-62
2023/03/08 05:15:40;;;;;;;5.40;3.17;;;;;;;16.97;50.35;98650.56;5111857;28;21144;-61
2023/03/08 05:18:06;;;;;;;6.57;2.70;;;;;;;16.96;50.34;98646.06;5111079;28;20173;-61
2023/03/08 05:20:31;;;;;;;6.37;3.00;;;;;;;16.96;50.34;98645.25;5112053;28;20770;-61
2023/03/08 05:22:56;;;;;;;4.20;2.97;;;;;;;16.94;50.45;98642.81;5111958;28;20661;-62
2023/03/08 05:25:22;;;;;;;5.60;2.53;;;;;;;16.93;50.24;98644.03;5112159;28;20162;-62
2023/03/08 05:27:47;;;;;;;3.87;2.80;;;;;;;16.92;50.22;98648.13;5106611;28;20188;-61
2023/03/08 05:30:13;;;;;;;6.67;2.70;;;;;;;16.89;50.53;98654.63;5111767;28;20162;-62
2023/03/08 05:32:38;;;;;;;4.70;3.03;;;;;;;16.87;50.57;98648.53;5111104;28;20234;-61
2023/03/08 05:35:04;;;;;;;4.53;2.70;;;;;;;16.88;50.80;98640.78;5111596;28;20814;-61
2023/03/08 05:37:29;;;;;;;3.67;2.60;;;;;;;16.87;50.77;98630.63;5111641;28;20158;-61
2023/03/08 05:39:55;;;;;;;3.70;2.43;;;;;;;16.92;50.51;98631.03;5111068;28;20188;-61
2023/03/08 05:42:20;;;;;;;3.90;2.50;;;;;;;16.94;50.48;98628.56;5111480;28;20154;-62
2023/03/08 05:44:46;;;;;;;4.33;2.90;;;;;;;16.91;50.54;98620.03;5092259;28;20174;-61
2023/03/08 05:47:11;;;;;;;5.47;3.57;;;;;;;16.92;50.63;98618.81;5110749;27;20571;-61
2023/03/08 05:49:37;;;;;;;4.77;2.90;;;;;;;16.87;50.51;98602.94;5116476;27;20191;-61
2023/03/08 05:52:02;;;;;;;3.43;2.70;;;;;;;16.88;50.83;98606.59;5111618;28;20517;-61
2023/03/08 05:54:28;;;;;;;4.60;2.70;;;;;;;16.88;50.56;98606.59;5111168;28;20311;-61
2023/03/08 05:56:53;;;;;;;6.50;3.13;;;;;;;16.86;50.82;98604.16;5111021;28;20499;-61
2023/03/08 05:59:19;;;;;;;5.07;3.00;;;;;;;16.87;50.50;98605.78;5103089;28;20178;-61
2023/03/08 06:01:44;;;;;;;4.90;2.77;;;;;;;16.88;50.79;98612.28;5110313;28;20188;-61
2023/03/08 06:04:10;;;;;;;4.83;3.13;;;;;;;16.92;50.71;98602.53;5092470;28;20259;-62
2023/03/08 06:06:35;;;;;;;3.70;2.50;;;;;;;16.87;50.51;98597.25;5109073;28;20173;-61
2023/03/08 06:09:00;;;;;;;4.90;2.73;;;;;;;16.87;50.78;98585.00;5110905;28;20221;-62
2023/03/08 06:11:26;;;;;;;6.40;2.93;;;;;;;16.87;50.55;98580.16;5110429;28;20184;-63
2023/03/08 06:13:51;;;;;;;4.33;2.50;;;;;;;16.96;50.35;98585.41;5099524;28;20182;-62
2023/03/08 06:16:17;;;;;;;5.40;2.50;;;;;;;17.00;50.50;98578.44;5110378;28;20185;-61
2023/03/08 06:18:42;;;;;;;8.17;4.00;;;;;;;16.97;50.19;98570.75;5110953;28;20217;-61
2023/03/08 06:21:15;;;;;;;5.43;2.77;;;;;;;16.94;50.33;98571.56;5108110;28;20227;-61
2023/03/08 06:23:41;;;;;;;6.40;3.03;;;;;;;16.94;50.45;98571.56;5106049;28;20232;-61
2023/03/08 06:26:06;;;;;;;3.93;2.80;;;;;;;16.96;50.30;98560.53;5108587;28;20753;-61
2023/03/08 06:28:32;;;;;;;3.93;2.60;;;;;;;16.96;50.38;98546.28;5107755;28;20644;-62
2023/03/08 06:30:57;;;;;;;4.27;2.57;;;;;;;16.92;50.38;98536.13;5091677;28;20178;-61
2023/03/08 06:33:25;;;;;;;5.70;3.57;;;;;;;16.92;50.49;98527.59;5109449;28;20572;-62
2023/03/08 06:36:00;;;;;;;5.33;2.90;;;;;;;16.88;50.51;98521.09;5087703;28;20226;-61
2023/03/08 06:38:26;;;;;;;5.23;2.53;;;;;;;16.86;50.74;98524.34;5102456;27;20426;-62
2023/03/08 06:40:51;;;;;;;5.10;2.80;;;;;;;16.88;50.55;98513.34;5105197;28;20638;-62
2023/03/08 06:43:17;;;;;;;4.77;2.93;;;;;;;16.89;50.59;98514.97;5111466;27;20197;-61
2023/03/08 06:45:42;;;;;;;3.50;2.23;;;;;;;16.86;50.42;98506.44;5110455;28;20207;-62
2023/03/08 06:48:08;;;;;;;4.90;2.90;;;;;;;16.96;50.61;98517.78;5105140;28;20170;-62
2023/03/08 06:50:33;;;;;;;6.83;4.50;;;;;;;16.75;46.79;98509.31;5107516;28;20180;-62
2023/03/08 06:52:59;;;;;;;11.53;7.27;;;;;;;16.74;48.58;98510.56;5100725;28;20170;-62
2023/03/08 06:55:24;;;;;;;14.10;8.87;;;;;;;16.83;49.88;98516.63;5090385;28;20209;-62
2023/03/08 06:57:50;;;;;;;19.20;9.90;;;;;;;17.00;48.46;98507.19;5106862;28;20230;-62
2023/03/08 07:00:16;;;;;;;15.30;9.40;;;;;;;17.10;46.16;98486.38;5090379;28;20187;-62
2023/03/08 07:02:41;;;;;;;16.50;9.40;;;;;;;17.30;44.72;98487.47;5088440;28;20205;-62
2023/03/08 07:05:07;;;;;;;13.73;8.30;;;;;;;17.64;44.19;98485.66;5094938;28;20451;-63
2023/03/08 07:07:34;;;;;;;15.07;7.30;;;;;;;17.79;43.76;98477.78;5108336;28;20586;-62
2023/03/08 07:09:59;;;;;;;11.10;6.93;;;;;;;17.90;43.92;98467.91;5107212;28;20281;-62
2023/03/08 07:12:25;;;;;;;13.20;7.80;;;;;;;17.56;42.79;98466.94;5108806;28;20419;-62
2023/03/08 07:14:52;;;;;;;13.73;8.33;;;;;;;17.36;42.65;98451.56;5108868;28;20169;-62
2023/03/08 07:17:18;;;;;;;13.87;7.73;;;;;;;17.35;42.28;98449.97;5090045;28;20186;-62
2023/03/08 07:19:44;;;;;;;14.70;7.60;;;;;;;17.39;42.19;98442.22;5109391;28;20791;-62
2023/03/08 07:22:11;;;;;;;13.80;7.67;;;;;;;17.63;42.52;98426.16;5107923;28;20184;-62
2023/03/08 07:24:37;;;;;;;11.13;6.77;;;;;;;17.95;42.47;98406.69;5108554;28;20278;-62
2023/03/08 07:27:03;;;;;;;13.03;6.80;;;;;;;18.07;42.25;98389.81;5090385;28;20501;-62
2023/03/08 07:29:28;;;;;;;12.50;6.33;;;;;;;18.01;42.04;98385.03;5108024;28;20575;-61
2023/03/08 07:31:53;;;;;;;11.10;7.00;;;;;;;17.91;41.34;98372.47;5109129;28;20174;-61
2023/03/08 07:34:19;;;;;;;13.30;7.90;;;;;;;17.56;41.24;98364.25;5090592;28;20181;-60
2023/03/08 07:36:44;;;;;;;12.23;9.50;;;;;;;17.43;40.86;98365.19;5113624;28;20222;-61
2023/03/08 07:39:10;;;;;;;15.47;10.80;;;;;;;17.38;40.77;98369.28;5106262;28;20177;-61
2023/03/08 07:41:35;;;;;;;35.20;25.10;;;;;;;17.44;41.60;98361.09;5104909;28;20178;-64
2023/03/08 07:44:01;;;;;;;30.83;19.87;;;;;;;17.78;41.12;98370.56;5113315;27;20720;-61
2023/03/08 07:46:27;;;;;;;23.27;15.93;;;;;;;17.78;41.18;98368.53;5111013;28;20177;-60
2023/03/08 07:48:52;;;;;;;23.83;17.70;;;;;;;17.78;40.82;98365.69;5113260;28;20240;-60
2023/03/08 07:51:18;;;;;;;26.20;16.43;;;;;;;17.77;41.36;98361.22;5114205;27;20177;-60
2023/03/08 07:53:43;;;;;;;25.97;16.40;;;;;;;18.05;41.92;98357.22;5112554;28;20173;-61
2023/03/08 07:56:09;;;;;;;24.70;15.30;;;;;;;18.20;42.07;98358.69;5093854;28;20939;-61
2023/03/08 07:58:34;;;;;;;27.83;15.97;;;;;;;18.19;42.34;98357.06;5112072;28;20197;-61
2023/03/08 08:01:00;;;;;;;21.23;13.33;;;;;;;18.18;42.53;98349.72;5091176;28;20178;-61
2023/03/08 08:03:25;;;;;;;20.33;14.10;;;;;;;18.17;42.47;98354.63;5103067;28;20574;-61
2023/03/08 08:05:51;;;;;;;21.50;14.07;;;;;;;18.16;43.03;98357.94;5094043;28;20645;-61
2023/03/08 08:08:16;;;;;;;21.47;14.00;;;;;;;18.06;43.37;98350.28;5112214;28;20174;-60
2023/03/08 08:10:42;;;;;;;19.90;12.77;;;;;;;17.96;43.63;98354.88;5112889;28;20225;-61
2023/03/08 08:13:07;;;;;;;19.40;12.90;;;;;;;17.65;43.80;98355.22;5113481;28;20178;-60
2023/03/08 08:15:34;;;;;;;19.20;12.43;;;;;;;17.57;43.83;98351.63;5112483;28;20440;-60
2023/03/08 08:18:00;;;;;;;16.33;12.00;;;;;;;17.50;44.64;98345.97;5111890;28;20472;-60
2023/03/08 08:20:25;;;;;;;19.10;11.67;;;;;;;17.49;44.27;98341.50;5094578;28;20208;-60
2023/03/08 08:22:52;;;;;;;17.00;11.30;;;;;;;17.50;44.58;98339.47;5111944;28;20227;-60
2023/03/08 08:25:18;;;;;;;15.70;10.53;;;;;;;17.50;44.35;98331.69;5104981;28;20202;-60
2023/03/08 08:27:43;;;;;;;15.70;10.30;;;;;;;17.38;44.68;98323.63;5112567;28;20423;-61
2023/03/08 08:30:11;;;;;;;16.63;10.80;;;;;;;17.35;44.98;98326.53;5112483;28;20189;-60
2023/03/08 08:32:37;;;;;;;16.47;9.73;;;;;;;17.44;44.29;98316.28;5112547;28;20231;-60
2023/03/08 08:35:03;;;;;;;20.00;11.13;;;;;;;17.48;45.39;98305.66;5112713;28;20411;-61
2023/03/08 08:37:30;;;;;;;15.63;11.00;;;;;;;17.48;45.19;98294.22;5111563;28;20186;-60
2023/03/08 08:39:55;;;;;;;17.20;10.43;;;;;;;17.49;44.52;98303.59;5113686;27;20803;-60
2023/03/08 08:42:21;;;;;;;17.43;10.47;;;;;;;17.39;45.23;98293.91;5118409;27;20435;-60
2023/03/08 08:44:46;;;;;;;14.83;10.33;;;;;;;17.39;45.05;98291.06;5112416;28;20201;-60
2023/03/08 08:47:12;;;;;;;13.77;10.03;;;;;;;17.36;45.33;98276.81;5110606;28;20178;-60
2023/03/08 08:49:38;;;;;;;12.70;9.33;;;;;;;17.21;45.48;98276.09;5111703;28;20236;-61
2023/03/08 08:52:03;;;;;;;16.50;9.83;;;;;;;17.27;46.05;98265.88;5111345;28;20184;-60
2023/03/08 08:54:29;;;;;;;21.80;10.60;;;;;;;17.51;46.70;98275.47;5106377;28;20557;-62
2023/03/08 08:56:54;;;;;;;24.87;9.93;;;;;;;17.50;47.79;98262.44;5111677;28;20181;-61
2023/03/08 08:59:20;;;;;;;17.60;10.67;;;;;;;17.53;47.59;98259.53;5108526;28;20205;-62
2023/03/08 09:01:45;;;;;;;17.20;9.10;;;;;;;17.52;47.21;98254.25;5089291;28;20243;-62
2023/03/08 09:04:12;;;;;;;13.90;9.40;;;;;;;17.40;47.91;98264.16;5110406;28;20214;-62
2023/03/08 09:06:38;;;;;;;22.17;9.03;;;;;;;17.47;47.77;98258.38;5107793;28;20202;-62
2023/03/08 09:09:04;;;;;;;19.00;8.30;;;;;;;17.47;47.60;98258.38;5109973;28;20495;-62
2023/03/08 09:11:29;;;;;;;17.40;9.10;;;;;;;17.47;48.00;98252.69;5106582;28;20178;-61
2023/03/08 09:13:55;;;;;;;14.30;9.60;;;;;;;17.39;47.75;98250.31;5106481;28;20857;-61
2023/03/08 09:16:31;;;;;;;12.23;8.20;;;;;;;17.35;47.93;98244.59;5102495;28;20554;-62
2023/03/08 09:18:57;;;;;;;12.03;7.87;;;;;;;17.34;47.96;98250.72;5092432;28;20551;-62
2023/03/08 09:21:24;;;;;;;17.83;8.67;;;;;;;17.30;48.72;98245.06;5111320;28;20431;-62
2023/03/08 09:23:49;;;;;;;12.63;7.93;;;;;;;17.26;48.71;98250.00;5110373;28;20463;-61
2023/03/08 09:26:15;;;;;;;13.57;8.03;;;;;;;17.24;48.93;98243.91;5111138;28;20772;-62
2023/03/08 09:28:40;;;;;;;17.37;7.30;;;;;;;17.22;48.89;98242.72;5092869;28;20176;-62
2023/03/08 09:31:15;;;;;;;12.13;7.63;;;;;;;17.20;48.74;98236.63;5092187;28;20192;-62
2023/03/08 09:33:50;;;;;;;14.40;8.30;;;;;;;17.20;48.98;98228.88;5111437;28;20169;-62
2023/03/08 09:36:16;;;;;;;14.53;7.70;;;;;;;17.18;49.22;98233.38;5111516;28;20426;-62
2023/03/08 09:38:41;;;;;;;15.07;7.43;;;;;;;17.19;48.93;98232.97;5110933;28;20438;-62
2023/03/08 09:41:20;;;;;;;15.47;8.13;;;;;;;17.19;49.12;98229.28;5111702;27;20185;-62
2023/03/08 09:44:19;;;;;;;16.10;7.40;;;;;;;17.14;49.39;98221.19;5128432;27;20193;-62
2023/03/08 09:46:48;;;;;;;15.10;8.53;;;;;;;17.16;49.24;98225.25;5092811;28;20496;-61
2023/03/08 09:49:16;;;;;;;14.27;7.40;;;;;;;17.21;49.47;98230.47;5076411;28;20904;-62
2023/03/08 09:51:44;;;;;;;11.03;6.73;;;;;;;17.18;49.61;98222.78;5110108;28;20446;-61
2023/03/08 09:54:12;;;;;;;12.40;8.40;;;;;;;17.15;49.55;98225.69;5092977;28;20420;-62
2023/03/08 09:56:41;;;;;;;11.87;7.17;;;;;;;17.16;49.42;98221.59;5092949;28;20907;-61
2023/03/08 09:59:10;;;;;;;14.67;7.00;;;;;;;17.14;49.45;98216.31;5111893;27;20495;-62
2023/03/08 10:01:57;;;;;;;9.67;7.00;;;;;;;17.16;49.45;98205.28;5087259;28;20443;-62
2023/03/08 10:04:57;;;;;;;9.83;7.23;;;;;;;17.14;49.64;98210.59;5110036;28;20471;-61
2023/03/08 10:07:41;;;;;;;11.67;6.90;;;;;;;17.12;49.50;98198.81;5075720;28;20404;-62
2023/03/08 10:10:36;;;;;;;13.30;6.73;;;;;;;17.11;49.76;98199.25;5108714;28;20464;-61
2023/03/08 10:13:39;;;;;;;12.30;6.10;;;;;;;17.13;49.52;98197.59;5111035;28;20516;-62
2023/03/08 10:16:44;;;;;;;11.63;7.13;;;;;;;17.09;49.46;98199.66;5110139;28;20473;-62
2023/03/08 10:19:19;;;;;;;11.30;6.47;;;;;;;17.10;49.95;98187.00;5011406;28;20784;-62
2023/03/08 10:21:45;;;;;;;10.90;6.10;;;;;;;17.10;49.67;98191.94;5099912;28;20532;-62
2023/03/08 10:24:29;;;;;;;11.90;6.90;;;;;;;17.10;49.58;98195.56;5110878;28;20455;-61
2023/03/08 10:27:05;;;;;;;12.10;6.70;;;;;;;17.09;49.81;98187.44;5093020;28;20162;-62
2023/03/08 10:29:31;;;;;;;9.87;6.87;;;;;;;17.06;49.96;98186.22;5109214;28;20426;-62
2023/03/08 10:31:56;;;;;;;12.23;6.67;;;;;;;17.09;49.80;98184.59;5109666;28;20420;-62
2023/03/08 10:34:28;;;;;;;11.10;6.63;;;;;;;17.09;49.76;98185.41;5109846;28;20715;-62
2023/03/08 10:37:01;;;;;;;10.20;6.33;;;;;;;17.07;50.15;98187.88;5071632;28;20186;-62
2023/03/08 10:39:27;;;;;;;10.73;6.20;;;;;;;17.03;49.96;98186.28;5106385;28;20464;-62
2023/03/08 10:41:59;;;;;;;12.27;6.30;;;;;;;17.06;50.05;98185.44;5130620;27;20418;-62
2023/03/08 10:44:41;;;;;;;12.50;6.93;;;;;;;17.10;50.02;98187.00;5105410;28;20203;-62
2023/03/08 10:47:31;;;;;;;11.20;6.43;;;;;;;17.16;49.69;98193.88;5088226;28;20416;-61
2023/03/08 10:50:15;;;;;;;11.90;6.27;;;;;;;17.18;49.79;98173.50;5098545;28;20462;-62
2023/03/08 10:52:41;;;;;;;9.27;5.90;;;;;;;17.17;49.48;98175.56;5110206;28;20416;-61
2023/03/08 10:55:14;;;;;;;11.97;6.20;;;;;;;17.17;49.91;98181.25;5109382;28;20451;-62
2023/03/08 10:57:41;;;;;;;8.93;6.90;;;;;;;17.16;49.72;98175.97;5110163;28;20172;-62
2023/03/08 11:00:20;;;;;;;11.70;6.30;;;;;;;17.10;49.84;98169.13;5109862;28;20416;-62
2023/03/08 11:02:46;;;;;;;11.60;5.50;;;;;;;17.08;50.01;98172.38;5073483;28;20428;-62
2023/03/08 11:05:19;;;;;;;10.77;6.57;;;;;;;17.07;50.23;98176.47;5073176;28;20451;-62
2023/03/08 11:07:52;;;;;;;10.17;6.63;;;;;;;17.10;50.20;98177.66;5109819;28;20404;-62
2023/03/08 11:10:19;;;;;;;13.20;7.33;;;;;;;17.05;50.07;98190.31;5107303;28;20520;-62
2023/03/08 11:12:44;;;;;;;8.23;5.90;;;;;;;17.08;50.24;98192.34;5103787;28;20427;-61
2023/03/08 11:15:17;;;;;;;13.83;6.50;;;;;;;17.06;50.39;98185.44;5110146;28;20936;-62
2023/03/08 11:18:34;;;;;;;9.60;6.30;;;;;;;17.05;50.16;98206.63;5098305;28;20173;-62
2023/03/08 11:21:04;;;;;;;10.13;5.80;;;;;;;17.07;50.03;98202.13;5010213;28;20441;-62
2023/03/08 11:23:34;;;;;;;9.27;6.17;;;;;;;16.99;50.43;98197.72;5009297;28;21468;-62
2023/03/08 11:26:34;;;;;;;12.20;5.87;;;;;;;17.01;50.25;98197.31;5043429;28;20447;-61
2023/03/08 11:29:11;;;;;;;9.83;6.37;;;;;;;17.10;49.98;98204.13;5105946;28;20756;-62
2023/03/08 11:32:28;;;;;;;11.43;6.10;;;;;;;17.07;50.25;98204.97;5109742;28;20404;-61
2023/03/08 11:35:05;;;;;;;9.57;6.30;;;;;;;17.07;50.30;98199.28;5075178;28;20443;-62